sensor_id;sensor_type;location;lat;lon;timestamp;P1;durP1;ratioP1;P2;durP2;ratioP2
12947;SDS011;6539;49.476;8.484;2023-04-24T00:02:01;3.83;;;1.50;;
12947;SDS011;6539;49.476;8.484;2023-04-24T00:04:30;2.60;;;1.73;;
12947;SDS011;6539;49.476;8.484;2023-04-24T00:06:56;1.63;;;1.37;;
12947;SDS011;6539;49.476;8.484;2023-04-24T00:09:25;1.27;;;1.20;;
12947;SDS011;6539;49.476;8.484;2023-04-24T00:11:51;2.33;;;1.37;;
12947;SDS011;6539;49.476;8.484;2023-04-24T00:14:21;2.80;;;1.43;;
12947;SDS011;6539;49.476;8.484;2023-04-24T00:16:46;1.37;;;1.20;;
12947;SDS011;6539;49.476;8.484;2023-04-24T00:19:12;1.77;;;1.20;;
12947;SDS011;6539;49.476;8.484;2023-04-24T00:21:38;5.43;;;1.40;;
12947;SDS011;6539;49.476;8.484;2023-04-24T00:24:04;1.90;;;1.20;;
12947;SDS011;6539;49.476;8.484;2023-04-24T00:26:33;3.77;;;1.80;;
12947;SDS011;6539;49.476;8.484;2023-04-24T00:29:02;3.70;;;1.57;;
12947;SDS011;6539;49.476;8.484;2023-04-24T00:31:28;1.60;;;1.43;;
12947;SDS011;6539;49.476;8.484;2023-04-24T00:33:58;2.60;;;1.83;;
12947;SDS011;6539;49.476;8.484;2023-04-24T00:36:24;3.03;;;1.60;;
12947;SDS011;6539;49.476;8.484;2023-04-24T00:38:50;1.50;;;1.40;;
12947;SDS011;6539;49.476;8.484;2023-04-24T00:41:18;1.67;;;1.50;;
12947;SDS011;6539;49.476;8.484;2023-04-24T00:43:44;1.70;;;1.40;;
12947;SDS011;6539;49.476;8.484;2023-04-24T00:46:10;2.93;;;1.30;;
12947;SDS011;6539;49.476;8.484;2023-04-24T00:48:39;2.30;;;1.30;;
12947;SDS011;6539;49.476;8.484;2023-04-24T00:51:08;3.57;;;1.70;;
12947;SDS011;6539;49.476;8.484;2023-04-24T00:53:34;3.13;;;1.47;;
12947;SDS011;6539;49.476;8.484;2023-04-24T00:56:04;2.43;;;1.83;;
12947;SDS011;6539;49.476;8.484;2023-04-24T00:58:31;3.00;;;1.50;;
12947;SDS011;6539;49.476;8.484;2023-04-24T01:00:57;2.37;;;1.33;;
12947;SDS011;6539;49.476;8.484;2023-04-24T01:03:29;3.40;;;1.40;;
12947;SDS011;6539;49.476;8.484;2023-04-24T01:05:56;2.30;;;1.53;;
12947;SDS011;6539;49.476;8.484;2023-04-24T01:08:23;1.63;;;1.50;;
12947;SDS011;6539;49.476;8.484;2023-04-24T01:10:55;1.70;;;1.50;;
12947;SDS011;6539;49.476;8.484;2023-04-24T01:13:23;2.37;;;1.70;;
12947;SDS011;6539;49.476;8.484;2023-04-24T01:15:49;4.93;;;2.03;;
12947;SDS011;6539;49.476;8.484;2023-04-24T01:18:17;2.47;;;1.53;;
12947;SDS011;6539;49.476;8.484;2023-04-24T01:20:43;8.37;;;1.70;;
12947;SDS011;6539;49.476;8.484;2023-04-24T01:23:11;6.73;;;1.60;;
12947;SDS011;6539;49.476;8.484;2023-04-24T01:25:40;1.97;;;1.57;;
12947;SDS011;6539;49.476;8.484;2023-04-24T01:28:08;2.70;;;1.80;;
12947;SDS011;6539;49.476;8.484;2023-04-24T01:30:34;1.50;;;1.40;;
12947;SDS011;6539;49.476;8.484;2023-04-24T01:33:01;3.83;;;1.30;;
12947;SDS011;6539;49.476;8.484;2023-04-24T01:35:27;1.73;;;1.40;;
12947;SDS011;6539;49.476;8.484;2023-04-24T01:37:53;3.47;;;1.50;;
12947;SDS011;6539;49.476;8.484;2023-04-24T01:40:19;1.83;;;1.60;;
12947;SDS011;6539;49.476;8.484;2023-04-24T01:42:50;1.80;;;1.30;;
12947;SDS011;6539;49.476;8.484;2023-04-24T01:45:16;1.80;;;1.30;;
12947;SDS011;6539;49.476;8.484;2023-04-24T01:47:42;1.50;;;1.40;;
12947;SDS011;6539;49.476;8.484;2023-04-24T01:50:12;3.60;;;1.60;;
12947;SDS011;6539;49.476;8.484;2023-04-24T01:52:38;1.30;;;1.20;;
12947;SDS011;6539;49.476;8.484;2023-04-24T01:55:04;2.10;;;1.40;;
12947;SDS011;6539;49.476;8.484;2023-04-24T01:57:34;2.80;;;1.43;;
12947;SDS011;6539;49.476;8.484;2023-04-24T02:00:03;1.40;;;1.20;;
12947;SDS011;6539;49.476;8.484;2023-04-24T02:02:32;3.03;;;1.40;;
12947;SDS011;6539;49.476;8.484;2023-04-24T02:05:03;1.33;;;1.20;;
12947;SDS011;6539;49.476;8.484;2023-04-24T02:07:34;1.50;;;1.27;;
12947;SDS011;6539;49.476;8.484;2023-04-24T02:10:05;1.73;;;1.37;;
12947;SDS011;6539;49.476;8.484;2023-04-24T02:12:36;2.10;;;1.40;;
12947;SDS011;6539;49.476;8.484;2023-04-24T02:15:05;1.50;;;1.10;;
12947;SDS011;6539;49.476;8.484;2023-04-24T02:17:31;2.17;;;1.40;;
12947;SDS011;6539;49.476;8.484;2023-04-24T02:19:57;2.67;;;1.60;;
12947;SDS011;6539;49.476;8.484;2023-04-24T02:22:25;2.53;;;1.10;;
12947;SDS011;6539;49.476;8.484;2023-04-24T02:24:54;3.43;;;1.30;;
12947;SDS011;6539;49.476;8.484;2023-04-24T02:27:22;3.03;;;1.40;;
12947;SDS011;6539;49.476;8.484;2023-04-24T02:29:48;1.43;;;1.03;;
12947;SDS011;6539;49.476;8.484;2023-04-24T02:32:16;2.27;;;1.30;;
12947;SDS011;6539;49.476;8.484;2023-04-24T02:34:41;3.13;;;1.60;;
12947;SDS011;6539;49.476;8.484;2023-04-24T02:37:07;3.43;;;1.73;;
12947;SDS011;6539;49.476;8.484;2023-04-24T02:39:41;4.87;;;1.43;;
12947;SDS011;6539;49.476;8.484;2023-04-24T02:42:09;2.80;;;1.30;;
12947;SDS011;6539;49.476;8.484;2023-04-24T02:44:37;3.80;;;1.40;;
12947;SDS011;6539;49.476;8.484;2023-04-24T02:47:05;3.90;;;1.57;;
12947;SDS011;6539;49.476;8.484;2023-04-24T02:49:35;2.20;;;1.40;;
12947;SDS011;6539;49.476;8.484;2023-04-24T02:52:03;2.30;;;1.40;;
12947;SDS011;6539;49.476;8.484;2023-04-24T02:54:31;1.30;;;1.20;;
12947;SDS011;6539;49.476;8.484;2023-04-24T02:56:56;1.73;;;1.50;;
12947;SDS011;6539;49.476;8.484;2023-04-24T02:59:22;1.20;;;0.93;;
12947;SDS011;6539;49.476;8.484;2023-04-24T03:01:52;1.23;;;1.00;;
12947;SDS011;6539;49.476;8.484;2023-04-24T03:04:20;1.30;;;1.20;;
12947;SDS011;6539;49.476;8.484;2023-04-24T03:06:46;3.30;;;1.47;;
12947;SDS011;6539;49.476;8.484;2023-04-24T03:09:12;2.00;;;1.53;;
12947;SDS011;6539;49.476;8.484;2023-04-24T03:11:38;1.80;;;1.23;;
12947;SDS011;6539;49.476;8.484;2023-04-24T03:14:05;2.07;;;1.60;;
12947;SDS011;6539;49.476;8.484;2023-04-24T03:16:31;3.67;;;2.50;;
12947;SDS011;6539;49.476;8.484;2023-04-24T03:18:59;2.87;;;2.23;;
12947;SDS011;6539;49.476;8.484;2023-04-24T03:21:30;4.20;;;1.97;;
12947;SDS011;6539;49.476;8.484;2023-04-24T03:23:58;2.53;;;1.80;;
12947;SDS011;6539;49.476;8.484;2023-04-24T03:26:24;6.17;;;1.50;;
12947;SDS011;6539;49.476;8.484;2023-04-24T03:28:50;4.70;;;1.67;;
12947;SDS011;6539;49.476;8.484;2023-04-24T03:31:18;5.17;;;1.80;;
12947;SDS011;6539;49.476;8.484;2023-04-24T03:33:46;2.03;;;1.60;;
12947;SDS011;6539;49.476;8.484;2023-04-24T03:36:12;3.53;;;1.70;;
12947;SDS011;6539;49.476;8.484;2023-04-24T03:38:40;1.70;;;1.60;;
12947;SDS011;6539;49.476;8.484;2023-04-24T03:41:08;3.07;;;1.57;;
12947;SDS011;6539;49.476;8.484;2023-04-24T03:43:33;2.87;;;1.93;;
12947;SDS011;6539;49.476;8.484;2023-04-24T03:46:01;3.63;;;1.63;;
12947;SDS011;6539;49.476;8.484;2023-04-24T03:48:27;2.40;;;1.70;;
12947;SDS011;6539;49.476;8.484;2023-04-24T03:50:55;2.33;;;1.67;;
12947;SDS011;6539;49.476;8.484;2023-04-24T03:53:21;1.67;;;1.57;;
12947;SDS011;6539;49.476;8.484;2023-04-24T03:55:47;2.73;;;1.53;;
12947;SDS011;6539;49.476;8.484;2023-04-24T03:58:13;1.30;;;1.20;;
12947;SDS011;6539;49.476;8.484;2023-04-24T04:00:39;1.43;;;1.33;;
12947;SDS011;6539;49.476;8.484;2023-04-24T04:03:09;1.30;;;1.20;;
12947;SDS011;6539;49.476;8.484;2023-04-24T04:05:39;1.50;;;1.40;;
12947;SDS011;6539;49.476;8.484;2023-04-24T04:08:05;1.37;;;1.23;;
12947;SDS011;6539;49.476;8.484;2023-04-24T04:10:31;4.70;;;1.40;;
12947;SDS011;6539;49.476;8.484;2023-04-24T04:12:59;2.70;;;1.60;;
12947;SDS011;6539;49.476;8.484;2023-04-24T04:15:25;1.53;;;1.20;;
12947;SDS011;6539;49.476;8.484;2023-04-24T04:17:55;1.50;;;1.40;;
12947;SDS011;6539;49.476;8.484;2023-04-24T04:20:21;1.50;;;1.40;;
12947;SDS011;6539;49.476;8.484;2023-04-24T04:22:47;1.57;;;1.40;;
12947;SDS011;6539;49.476;8.484;2023-04-24T04:25:17;1.60;;;1.50;;
12947;SDS011;6539;49.476;8.484;2023-04-24T04:27:46;1.87;;;1.77;;
12947;SDS011;6539;49.476;8.484;2023-04-24T04:30:15;2.73;;;2.10;;
12947;SDS011;6539;49.476;8.484;2023-04-24T04:32:41;2.60;;;2.10;;
12947;SDS011;6539;49.476;8.484;2023-04-24T04:35:09;2.30;;;1.97;;
12947;SDS011;6539;49.476;8.484;2023-04-24T04:37:36;4.20;;;2.10;;
12947;SDS011;6539;49.476;8.484;2023-04-24T04:40:02;2.80;;;1.90;;
12947;SDS011;6539;49.476;8.484;2023-04-24T04:42:31;4.23;;;2.30;;
12947;SDS011;6539;49.476;8.484;2023-04-24T04:45:05;2.30;;;2.10;;
12947;SDS011;6539;49.476;8.484;2023-04-24T04:47:34;2.53;;;2.00;;
12947;SDS011;6539;49.476;8.484;2023-04-24T04:50:02;3.67;;;2.30;;
12947;SDS011;6539;49.476;8.484;2023-04-24T04:52:29;5.43;;;2.20;;
12947;SDS011;6539;49.476;8.484;2023-04-24T04:54:55;3.57;;;2.50;;
12947;SDS011;6539;49.476;8.484;2023-04-24T04:57:21;3.63;;;2.47;;
12947;SDS011;6539;49.476;8.484;2023-04-24T04:59:46;4.23;;;2.73;;
12947;SDS011;6539;49.476;8.484;2023-04-24T05:02:12;3.27;;;2.67;;
12947;SDS011;6539;49.476;8.484;2023-04-24T05:04:41;4.07;;;2.67;;
12947;SDS011;6539;49.476;8.484;2023-04-24T05:07:11;6.30;;;4.27;;
12947;SDS011;6539;49.476;8.484;2023-04-24T05:09:41;4.57;;;3.33;;
12947;SDS011;6539;49.476;8.484;2023-04-24T05:12:09;3.27;;;2.93;;
12947;SDS011;6539;49.476;8.484;2023-04-24T05:14:37;4.77;;;3.37;;
12947;SDS011;6539;49.476;8.484;2023-04-24T05:17:03;3.63;;;2.60;;
12947;SDS011;6539;49.476;8.484;2023-04-24T05:19:29;4.27;;;2.60;;
12947;SDS011;6539;49.476;8.484;2023-04-24T05:21:57;5.33;;;2.60;;
12947;SDS011;6539;49.476;8.484;2023-04-24T05:24:30;2.90;;;2.40;;
12947;SDS011;6539;49.476;8.484;2023-04-24T05:26:58;6.47;;;2.40;;
12947;SDS011;6539;49.476;8.484;2023-04-24T05:29:24;4.57;;;3.27;;
12947;SDS011;6539;49.476;8.484;2023-04-24T05:31:53;5.60;;;2.90;;
12947;SDS011;6539;49.476;8.484;2023-04-24T05:34:22;5.30;;;2.50;;
12947;SDS011;6539;49.476;8.484;2023-04-24T05:36:50;6.20;;;2.90;;
12947;SDS011;6539;49.476;8.484;2023-04-24T05:39:21;4.60;;;3.20;;
12947;SDS011;6539;49.476;8.484;2023-04-24T05:41:47;3.60;;;2.80;;
12947;SDS011;6539;49.476;8.484;2023-04-24T05:44:12;4.00;;;2.80;;
12947;SDS011;6539;49.476;8.484;2023-04-24T05:46:41;8.07;;;3.27;;
12947;SDS011;6539;49.476;8.484;2023-04-24T05:49:07;7.80;;;3.03;;
12947;SDS011;6539;49.476;8.484;2023-04-24T05:51:33;12.70;;;3.77;;
12947;SDS011;6539;49.476;8.484;2023-04-24T05:54:02;5.20;;;3.20;;
12947;SDS011;6539;49.476;8.484;2023-04-24T05:56:32;4.97;;;2.97;;
12947;SDS011;6539;49.476;8.484;2023-04-24T05:59:03;5.17;;;3.87;;
12947;SDS011;6539;49.476;8.484;2023-04-24T06:01:32;6.60;;;3.53;;
12947;SDS011;6539;49.476;8.484;2023-04-24T06:03:58;4.73;;;3.50;;
12947;SDS011;6539;49.476;8.484;2023-04-24T06:06:26;8.13;;;3.57;;
12947;SDS011;6539;49.476;8.484;2023-04-24T06:08:52;5.50;;;3.43;;
12947;SDS011;6539;49.476;8.484;2023-04-24T06:11:18;6.63;;;3.50;;
12947;SDS011;6539;49.476;8.484;2023-04-24T06:13:44;4.23;;;3.30;;
12947;SDS011;6539;49.476;8.484;2023-04-24T06:16:10;3.40;;;2.50;;
12947;SDS011;6539;49.476;8.484;2023-04-24T06:18:36;3.37;;;2.97;;
12947;SDS011;6539;49.476;8.484;2023-04-24T06:21:02;4.27;;;3.00;;
12947;SDS011;6539;49.476;8.484;2023-04-24T06:23:28;2.60;;;2.40;;
12947;SDS011;6539;49.476;8.484;2023-04-24T06:25:57;3.20;;;2.90;;
12947;SDS011;6539;49.476;8.484;2023-04-24T06:28:23;3.87;;;2.73;;
12947;SDS011;6539;49.476;8.484;2023-04-24T06:30:49;3.80;;;3.10;;
12947;SDS011;6539;49.476;8.484;2023-04-24T06:33:15;5.10;;;3.30;;
12947;SDS011;6539;49.476;8.484;2023-04-24T06:35:46;4.33;;;2.83;;
12947;SDS011;6539;49.476;8.484;2023-04-24T06:38:14;4.23;;;3.40;;
12947;SDS011;6539;49.476;8.484;2023-04-24T06:40:43;4.00;;;2.47;;
12947;SDS011;6539;49.476;8.484;2023-04-24T06:43:09;3.50;;;2.50;;
12947;SDS011;6539;49.476;8.484;2023-04-24T06:45:37;4.53;;;2.90;;
12947;SDS011;6539;49.476;8.484;2023-04-24T06:48:04;3.87;;;1.90;;
12947;SDS011;6539;49.476;8.484;2023-04-24T06:50:32;3.20;;;2.17;;
12947;SDS011;6539;49.476;8.484;2023-04-24T06:52:58;6.07;;;3.13;;
12947;SDS011;6539;49.476;8.484;2023-04-24T06:55:26;2.47;;;2.10;;
12947;SDS011;6539;49.476;8.484;2023-04-24T06:57:54;3.30;;;2.20;;
12947;SDS011;6539;49.476;8.484;2023-04-24T07:00:20;3.33;;;1.47;;
12947;SDS011;6539;49.476;8.484;2023-04-24T07:02:49;3.40;;;1.73;;
12947;SDS011;6539;49.476;8.484;2023-04-24T07:05:15;4.20;;;1.80;;
12947;SDS011;6539;49.476;8.484;2023-04-24T07:07:40;3.97;;;1.50;;
12947;SDS011;6539;49.476;8.484;2023-04-24T07:10:06;1.87;;;1.77;;
12947;SDS011;6539;49.476;8.484;2023-04-24T07:12:35;2.70;;;1.60;;
12947;SDS011;6539;49.476;8.484;2023-04-24T07:15:04;2.20;;;1.70;;
12947;SDS011;6539;49.476;8.484;2023-04-24T07:17:33;2.40;;;1.53;;
12947;SDS011;6539;49.476;8.484;2023-04-24T07:20:03;1.33;;;1.10;;
12947;SDS011;6539;49.476;8.484;2023-04-24T07:22:32;2.57;;;1.33;;
12947;SDS011;6539;49.476;8.484;2023-04-24T07:25:02;2.20;;;1.43;;
12947;SDS011;6539;49.476;8.484;2023-04-24T07:27:28;2.03;;;1.47;;
12947;SDS011;6539;49.476;8.484;2023-04-24T07:29:54;3.80;;;1.43;;
12947;SDS011;6539;49.476;8.484;2023-04-24T07:32:20;2.73;;;1.40;;
12947;SDS011;6539;49.476;8.484;2023-04-24T07:34:48;2.57;;;1.43;;
12947;SDS011;6539;49.476;8.484;2023-04-24T07:37:16;2.60;;;1.33;;
12947;SDS011;6539;49.476;8.484;2023-04-24T07:39:44;2.80;;;1.60;;
12947;SDS011;6539;49.476;8.484;2023-04-24T07:42:12;3.30;;;1.90;;
12947;SDS011;6539;49.476;8.484;2023-04-24T07:44:41;1.90;;;1.60;;
12947;SDS011;6539;49.476;8.484;2023-04-24T07:47:09;2.10;;;1.80;;
12947;SDS011;6539;49.476;8.484;2023-04-24T07:49:38;1.93;;;1.50;;
12947;SDS011;6539;49.476;8.484;2023-04-24T07:52:03;4.67;;;2.00;;
12947;SDS011;6539;49.476;8.484;2023-04-24T07:54:31;3.30;;;1.90;;
12947;SDS011;6539;49.476;8.484;2023-04-24T07:56:57;3.90;;;1.60;;
12947;SDS011;6539;49.476;8.484;2023-04-24T07:59:22;1.97;;;1.67;;
12947;SDS011;6539;49.476;8.484;2023-04-24T08:01:51;1.87;;;1.77;;
12947;SDS011;6539;49.476;8.484;2023-04-24T08:04:17;2.20;;;2.00;;
12947;SDS011;6539;49.476;8.484;2023-04-24T08:06:43;2.73;;;1.50;;
12947;SDS011;6539;49.476;8.484;2023-04-24T08:09:09;2.47;;;1.57;;
12947;SDS011;6539;49.476;8.484;2023-04-24T08:11:35;2.73;;;1.90;;
12947;SDS011;6539;49.476;8.484;2023-04-24T08:14:01;4.37;;;2.00;;
12947;SDS011;6539;49.476;8.484;2023-04-24T08:16:27;2.07;;;1.40;;
12947;SDS011;6539;49.476;8.484;2023-04-24T08:18:53;3.17;;;1.53;;
12947;SDS011;6539;49.476;8.484;2023-04-24T08:21:22;3.30;;;1.53;;
12947;SDS011;6539;49.476;8.484;2023-04-24T08:23:51;2.67;;;1.87;;
12947;SDS011;6539;49.476;8.484;2023-04-24T08:26:17;2.37;;;2.17;;
12947;SDS011;6539;49.476;8.484;2023-04-24T08:28:46;2.83;;;2.03;;
12947;SDS011;6539;49.476;8.484;2023-04-24T08:31:13;2.60;;;2.00;;
12947;SDS011;6539;49.476;8.484;2023-04-24T08:33:39;2.03;;;1.87;;
12947;SDS011;6539;49.476;8.484;2023-04-24T08:36:06;4.47;;;2.13;;
12947;SDS011;6539;49.476;8.484;2023-04-24T08:38:35;3.10;;;1.87;;
12947;SDS011;6539;49.476;8.484;2023-04-24T08:41:05;6.60;;;2.13;;
12947;SDS011;6539;49.476;8.484;2023-04-24T08:43:37;3.27;;;1.83;;
12947;SDS011;6539;49.476;8.484;2023-04-24T08:46:05;4.73;;;2.00;;
12947;SDS011;6539;49.476;8.484;2023-04-24T08:48:35;4.30;;;2.67;;
12947;SDS011;6539;49.476;8.484;2023-04-24T08:51:02;4.30;;;1.87;;
12947;SDS011;6539;49.476;8.484;2023-04-24T08:53:32;4.90;;;2.20;;
12947;SDS011;6539;49.476;8.484;2023-04-24T08:56:02;3.73;;;1.80;;
12947;SDS011;6539;49.476;8.484;2023-04-24T08:58:28;6.40;;;2.50;;
12947;SDS011;6539;49.476;8.484;2023-04-24T09:00:56;4.13;;;1.90;;
12947;SDS011;6539;49.476;8.484;2023-04-24T09:03:23;4.93;;;2.03;;
12947;SDS011;6539;49.476;8.484;2023-04-24T09:05:52;6.63;;;2.30;;
12947;SDS011;6539;49.476;8.484;2023-04-24T09:08:23;2.43;;;1.90;;
12947;SDS011;6539;49.476;8.484;2023-04-24T09:10:51;2.53;;;1.80;;
12947;SDS011;6539;49.476;8.484;2023-04-24T09:13:19;3.03;;;1.70;;
12947;SDS011;6539;49.476;8.484;2023-04-24T09:15:45;7.53;;;2.40;;
12947;SDS011;6539;49.476;8.484;2023-04-24T09:18:12;2.47;;;1.90;;
12947;SDS011;6539;49.476;8.484;2023-04-24T09:20:56;6.20;;;2.37;;
12947;SDS011;6539;49.476;8.484;2023-04-24T09:23:33;2.43;;;2.10;;
12947;SDS011;6539;49.476;8.484;2023-04-24T09:26:02;4.40;;;2.13;;
12947;SDS011;6539;49.476;8.484;2023-04-24T09:28:34;5.93;;;2.17;;
12947;SDS011;6539;49.476;8.484;2023-04-24T09:31:09;4.40;;;1.97;;
12947;SDS011;6539;49.476;8.484;2023-04-24T09:33:56;4.57;;;1.80;;
12947;SDS011;6539;49.476;8.484;2023-04-24T09:36:32;3.53;;;2.37;;
12947;SDS011;6539;49.476;8.484;2023-04-24T09:39:10;4.30;;;2.17;;
12947;SDS011;6539;49.476;8.484;2023-04-24T09:41:45;3.40;;;2.00;;
12947;SDS011;6539;49.476;8.484;2023-04-24T09:44:25;3.17;;;2.00;;
12947;SDS011;6539;49.476;8.484;2023-04-24T09:46:58;3.67;;;2.03;;
12947;SDS011;6539;49.476;8.484;2023-04-24T09:52:09;3.60;;;1.97;;
12947;SDS011;6539;49.476;8.484;2023-04-24T09:54:43;3.90;;;2.20;;
12947;SDS011;6539;49.476;8.484;2023-04-24T09:57:19;4.57;;;2.27;;
12947;SDS011;6539;49.476;8.484;2023-04-24T09:59:45;2.67;;;2.10;;
12947;SDS011;6539;49.476;8.484;2023-04-24T10:02:17;3.70;;;2.40;;
12947;SDS011;6539;49.476;8.484;2023-04-24T10:04:53;2.30;;;2.10;;
12947;SDS011;6539;49.476;8.484;2023-04-24T10:07:27;4.67;;;2.00;;
12947;SDS011;6539;49.476;8.484;2023-04-24T10:09:55;2.80;;;1.90;;
12947;SDS011;6539;49.476;8.484;2023-04-24T10:12:21;2.30;;;1.83;;
12947;SDS011;6539;49.476;8.484;2023-04-24T10:14:49;2.80;;;1.93;;
12947;SDS011;6539;49.476;8.484;2023-04-24T10:17:18;1.80;;;1.70;;
12947;SDS011;6539;49.476;8.484;2023-04-24T10:19:46;3.23;;;2.10;;
12947;SDS011;6539;49.476;8.484;2023-04-24T10:22:15;2.47;;;1.60;;
12947;SDS011;6539;49.476;8.484;2023-04-24T10:24:45;3.57;;;1.80;;
12947;SDS011;6539;49.476;8.484;2023-04-24T10:27:15;2.60;;;1.67;;
12947;SDS011;6539;49.476;8.484;2023-04-24T10:29:45;3.97;;;1.47;;
12947;SDS011;6539;49.476;8.484;2023-04-24T10:32:18;1.63;;;1.53;;
12947;SDS011;6539;49.476;8.484;2023-04-24T10:34:44;4.47;;;1.80;;
12947;SDS011;6539;49.476;8.484;2023-04-24T10:37:10;3.60;;;1.70;;
12947;SDS011;6539;49.476;8.484;2023-04-24T10:39:36;2.17;;;1.97;;
12947;SDS011;6539;49.476;8.484;2023-04-24T10:42:16;3.07;;;1.80;;
12947;SDS011;6539;49.476;8.484;2023-04-24T10:44:42;3.00;;;1.77;;
12947;SDS011;6539;49.476;8.484;2023-04-24T10:47:16;3.77;;;1.57;;
12947;SDS011;6539;49.476;8.484;2023-04-24T10:49:42;1.70;;;1.60;;
12947;SDS011;6539;49.476;8.484;2023-04-24T10:52:13;3.23;;;2.27;;
12947;SDS011;6539;49.476;8.484;2023-04-24T10:59:45;2.10;;;1.70;;
12947;SDS011;6539;49.476;8.484;2023-04-24T11:02:14;1.93;;;1.73;;
12947;SDS011;6539;49.476;8.484;2023-04-24T11:04:45;3.07;;;2.20;;
12947;SDS011;6539;49.476;8.484;2023-04-24T11:07:11;3.10;;;1.80;;
12947;SDS011;6539;49.476;8.484;2023-04-24T11:09:37;2.67;;;2.23;;
12947;SDS011;6539;49.476;8.484;2023-04-24T11:12:07;2.83;;;2.20;;
12947;SDS011;6539;49.476;8.484;2023-04-24T11:17:29;3.83;;;2.53;;
12947;SDS011;6539;49.476;8.484;2023-04-24T11:20:09;5.17;;;2.70;;
12947;SDS011;6539;49.476;8.484;2023-04-24T11:22:39;4.03;;;2.70;;
12947;SDS011;6539;49.476;8.484;2023-04-24T11:25:05;2.80;;;2.50;;
12947;SDS011;6539;49.476;8.484;2023-04-24T11:27:41;4.53;;;2.57;;
12947;SDS011;6539;49.476;8.484;2023-04-24T11:30:09;3.90;;;2.60;;
12947;SDS011;6539;49.476;8.484;2023-04-24T11:32:42;2.70;;;2.43;;
12947;SDS011;6539;49.476;8.484;2023-04-24T11:35:19;5.80;;;2.60;;
12947;SDS011;6539;49.476;8.484;2023-04-24T11:37:50;7.83;;;2.87;;
12947;SDS011;6539;49.476;8.484;2023-04-24T11:40:23;3.60;;;2.77;;
12947;SDS011;6539;49.476;8.484;2023-04-24T11:42:50;3.97;;;3.13;;
12947;SDS011;6539;49.476;8.484;2023-04-24T11:45:38;3.90;;;2.90;;
12947;SDS011;6539;49.476;8.484;2023-04-24T11:48:19;4.23;;;2.57;;
12947;SDS011;6539;49.476;8.484;2023-04-24T11:50:48;2.77;;;2.47;;
12947;SDS011;6539;49.476;8.484;2023-04-24T11:53:18;4.53;;;2.63;;
12947;SDS011;6539;49.476;8.484;2023-04-24T11:55:46;6.00;;;3.10;;
12947;SDS011;6539;49.476;8.484;2023-04-24T11:58:12;3.27;;;2.63;;
12947;SDS011;6539;49.476;8.484;2023-04-24T12:00:38;8.57;;;2.97;;
12947;SDS011;6539;49.476;8.484;2023-04-24T12:03:11;4.93;;;2.83;;
12947;SDS011;6539;49.476;8.484;2023-04-24T12:05:37;4.33;;;2.73;;
12947;SDS011;6539;49.476;8.484;2023-04-24T12:08:04;3.93;;;2.80;;
12947;SDS011;6539;49.476;8.484;2023-04-24T12:10:31;4.30;;;2.90;;
12947;SDS011;6539;49.476;8.484;2023-04-24T12:12:59;3.10;;;2.80;;
12947;SDS011;6539;49.476;8.484;2023-04-24T12:15:28;3.97;;;2.53;;
12947;SDS011;6539;49.476;8.484;2023-04-24T12:17:54;6.10;;;2.30;;
12947;SDS011;6539;49.476;8.484;2023-04-24T12:20:28;4.93;;;2.40;;
12947;SDS011;6539;49.476;8.484;2023-04-24T12:22:58;4.93;;;2.40;;
12947;SDS011;6539;49.476;8.484;2023-04-24T12:25:32;6.73;;;2.27;;
12947;SDS011;6539;49.476;8.484;2023-04-24T12:30:33;4.97;;;2.70;;
12947;SDS011;6539;49.476;8.484;2023-04-24T12:33:07;6.37;;;2.70;;
12947;SDS011;6539;49.476;8.484;2023-04-24T12:35:35;3.83;;;2.77;;
12947;SDS011;6539;49.476;8.484;2023-04-24T12:38:07;5.20;;;2.60;;
12947;SDS011;6539;49.476;8.484;2023-04-24T12:40:34;5.50;;;2.60;;
12947;SDS011;6539;49.476;8.484;2023-04-24T12:43:00;5.00;;;2.70;;
12947;SDS011;6539;49.476;8.484;2023-04-24T12:45:37;5.30;;;2.83;;
12947;SDS011;6539;49.476;8.484;2023-04-24T12:48:06;3.50;;;2.67;;
12947;SDS011;6539;49.476;8.484;2023-04-24T12:50:34;3.73;;;2.63;;
12947;SDS011;6539;49.476;8.484;2023-04-24T12:53:02;4.17;;;2.83;;
12947;SDS011;6539;49.476;8.484;2023-04-24T12:55:28;4.87;;;3.20;;
12947;SDS011;6539;49.476;8.484;2023-04-24T12:57:53;5.40;;;2.97;;
12947;SDS011;6539;49.476;8.484;2023-04-24T13:00:21;6.10;;;3.00;;
12947;SDS011;6539;49.476;8.484;2023-04-24T13:02:49;2.77;;;2.57;;
12947;SDS011;6539;49.476;8.484;2023-04-24T13:05:18;3.43;;;2.60;;
12947;SDS011;6539;49.476;8.484;2023-04-24T13:07:44;5.77;;;2.70;;
12947;SDS011;6539;49.476;8.484;2023-04-24T13:10:12;2.90;;;2.30;;
12947;SDS011;6539;49.476;8.484;2023-04-24T13:12:38;5.07;;;2.97;;
12947;SDS011;6539;49.476;8.484;2023-04-24T13:15:05;5.53;;;2.80;;
12947;SDS011;6539;49.476;8.484;2023-04-24T13:17:34;4.70;;;2.73;;
12947;SDS011;6539;49.476;8.484;2023-04-24T13:20:03;4.80;;;2.80;;
12947;SDS011;6539;49.476;8.484;2023-04-24T13:22:38;6.37;;;3.00;;
12947;SDS011;6539;49.476;8.484;2023-04-24T13:25:04;7.53;;;2.90;;
12947;SDS011;6539;49.476;8.484;2023-04-24T13:27:37;4.10;;;2.83;;
12947;SDS011;6539;49.476;8.484;2023-04-24T13:30:06;3.07;;;2.47;;
12947;SDS011;6539;49.476;8.484;2023-04-24T13:32:33;4.43;;;2.40;;
12947;SDS011;6539;49.476;8.484;2023-04-24T13:35:00;3.80;;;2.40;;
12947;SDS011;6539;49.476;8.484;2023-04-24T13:37:26;3.47;;;2.27;;
12947;SDS011;6539;49.476;8.484;2023-04-24T13:39:54;5.60;;;3.43;;
12947;SDS011;6539;49.476;8.484;2023-04-24T13:42:24;2.80;;;2.47;;
12947;SDS011;6539;49.476;8.484;2023-04-24T13:44:50;4.90;;;2.70;;
12947;SDS011;6539;49.476;8.484;2023-04-24T13:47:17;3.97;;;2.90;;
12947;SDS011;6539;49.476;8.484;2023-04-24T13:49:44;3.37;;;2.70;;
12947;SDS011;6539;49.476;8.484;2023-04-24T13:52:10;3.53;;;2.67;;
12947;SDS011;6539;49.476;8.484;2023-04-24T13:54:39;5.97;;;2.87;;
12947;SDS011;6539;49.476;8.484;2023-04-24T13:57:07;4.63;;;2.30;;
12947;SDS011;6539;49.476;8.484;2023-04-24T13:59:35;2.80;;;2.43;;
12947;SDS011;6539;49.476;8.484;2023-04-24T14:02:03;3.60;;;2.50;;
12947;SDS011;6539;49.476;8.484;2023-04-24T14:04:29;4.00;;;2.60;;
12947;SDS011;6539;49.476;8.484;2023-04-24T14:06:58;3.90;;;2.43;;
12947;SDS011;6539;49.476;8.484;2023-04-24T14:09:24;4.67;;;2.70;;
12947;SDS011;6539;49.476;8.484;2023-04-24T14:11:51;3.07;;;2.43;;
12947;SDS011;6539;49.476;8.484;2023-04-24T14:14:20;3.73;;;2.60;;
12947;SDS011;6539;49.476;8.484;2023-04-24T14:16:45;4.50;;;2.57;;
12947;SDS011;6539;49.476;8.484;2023-04-24T14:19:11;4.10;;;2.90;;
12947;SDS011;6539;49.476;8.484;2023-04-24T14:21:37;5.40;;;2.90;;
12947;SDS011;6539;49.476;8.484;2023-04-24T14:24:05;3.07;;;2.77;;
12947;SDS011;6539;49.476;8.484;2023-04-24T14:26:31;3.47;;;2.80;;
12947;SDS011;6539;49.476;8.484;2023-04-24T14:28:57;5.10;;;2.97;;
12947;SDS011;6539;49.476;8.484;2023-04-24T14:31:23;3.27;;;2.97;;
12947;SDS011;6539;49.476;8.484;2023-04-24T14:33:52;7.63;;;2.63;;
12947;SDS011;6539;49.476;8.484;2023-04-24T14:36:18;4.90;;;2.53;;
12947;SDS011;6539;49.476;8.484;2023-04-24T14:38:44;5.60;;;2.90;;
12947;SDS011;6539;49.476;8.484;2023-04-24T14:41:15;4.33;;;2.97;;
12947;SDS011;6539;49.476;8.484;2023-04-24T14:43:43;3.03;;;2.57;;
12947;SDS011;6539;49.476;8.484;2023-04-24T14:46:14;3.30;;;3.00;;
12947;SDS011;6539;49.476;8.484;2023-04-24T14:48:42;3.63;;;2.77;;
12947;SDS011;6539;49.476;8.484;2023-04-24T14:51:08;2.93;;;2.40;;
12947;SDS011;6539;49.476;8.484;2023-04-24T14:53:36;4.67;;;2.70;;
12947;SDS011;6539;49.476;8.484;2023-04-24T14:56:02;7.80;;;3.10;;
12947;SDS011;6539;49.476;8.484;2023-04-24T14:58:30;4.10;;;2.43;;
12947;SDS011;6539;49.476;8.484;2023-04-24T15:00:56;6.30;;;3.27;;
12947;SDS011;6539;49.476;8.484;2023-04-24T15:03:24;8.37;;;2.83;;
12947;SDS011;6539;49.476;8.484;2023-04-24T15:05:51;3.33;;;2.70;;
12947;SDS011;6539;49.476;8.484;2023-04-24T15:08:19;3.73;;;2.43;;
12947;SDS011;6539;49.476;8.484;2023-04-24T15:10:46;3.10;;;2.60;;
12947;SDS011;6539;49.476;8.484;2023-04-24T15:13:12;3.80;;;2.83;;
12947;SDS011;6539;49.476;8.484;2023-04-24T15:15:38;3.00;;;2.70;;
12947;SDS011;6539;49.476;8.484;2023-04-24T15:18:07;4.30;;;3.13;;
12947;SDS011;6539;49.476;8.484;2023-04-24T15:20:36;6.77;;;3.13;;